createdAt,value
2023-02-24T00:02:05.989Z,101538.41
2023-02-24T00:04:36.105Z,101538.41
2023-02-24T00:07:03.247Z,101535.94
2023-02-24T00:09:31.508Z,101535.66
2023-02-24T00:12:09.016Z,101527.50
2023-02-24T00:14:38.791Z,101522.97
2023-02-24T00:17:10.154Z,101527.75
2023-02-24T00:19:38.185Z,101525.91
2023-02-24T00:22:07.811Z,101520.69
2023-02-24T00:24:35.935Z,101519.50
2023-02-24T00:27:07.928Z,101499.16
2023-02-24T00:29:37.657Z,101499.44
2023-02-24T00:32:07.909Z,101499.47
2023-02-24T00:34:37.958Z,101496.59
2023-02-24T00:37:09.213Z,101499.53
2023-02-24T00:39:37.346Z,101492.47
2023-02-24T00:42:05.930Z,101499.25
2023-02-24T00:44:46.669Z,101497.59
2023-02-24T00:47:16.395Z,101492.09
2023-02-24T00:49:44.172Z,101488.47
2023-02-24T00:52:14.200Z,101484.84
2023-02-24T00:54:42.139Z,101468.34
2023-02-24T00:57:09.975Z,101471.00
2023-02-24T00:59:38.228Z,101472.00
2023-02-24T01:02:07.199Z,101471.13
2023-02-24T01:04:35.048Z,101474.34
2023-02-24T01:07:02.244Z,101466.50
2023-02-24T01:09:32.294Z,101462.19
2023-02-24T01:12:18.443Z,101455.91
2023-02-24T01:14:48.006Z,101454.16
2023-02-24T01:17:18.196Z,101437.94
2023-02-24T01:19:47.222Z,101438.63
2023-02-24T01:22:15.437Z,101435.13
2023-02-24T01:24:44.162Z,101422.72
2023-02-24T01:27:13.913Z,101429.03
2023-02-24T01:29:41.041Z,101416.84
2023-02-24T01:32:13.361Z,101414.59
2023-02-24T01:34:42.360Z,101402.63
2023-02-24T01:37:10.060Z,101415.28
2023-02-24T01:39:37.567Z,101398.22
2023-02-24T01:42:06.730Z,101388.31
2023-02-24T01:44:33.732Z,101394.28
2023-02-24T01:47:04.018Z,101393.31
2023-02-24T01:49:49.176Z,101366.41
2023-02-24T01:52:24.314Z,101373.50
2023-02-24T01:55:09.190Z,101370.16
2023-02-24T01:57:41.574Z,101366.41
2023-02-24T02:00:11.889Z,101368.19
2023-02-24T02:02:43.408Z,101359.56
2023-02-24T02:05:11.579Z,101353.66
2023-02-24T02:07:40.514Z,101353.19
2023-02-24T02:10:09.686Z,101355.84
2023-02-24T02:12:43.986Z,101350.94
2023-02-24T02:15:14.391Z,101356.03
2023-02-24T02:17:49.190Z,101346.41
2023-02-24T02:20:48.055Z,101350.94
2023-02-24T02:23:57.899Z,101336.41
2023-02-24T02:26:57.961Z,101342.22
2023-02-24T02:29:46.344Z,101328.38
2023-02-24T02:32:52.401Z,101323.75
2023-02-24T02:35:46.307Z,101316.44
2023-02-24T02:38:31.459Z,101307.69
2023-02-24T02:41:11.088Z,101300.81
2023-02-24T02:43:44.985Z,101304.06
2023-02-24T02:46:44.420Z,101303.09
2023-02-24T02:49:35.878Z,101287.00
2023-02-24T02:52:13.739Z,101287.50
2023-02-24T02:54:54.619Z,101283.09
2023-02-24T02:57:30.653Z,101288.19
2023-02-24T03:00:13.268Z,101293.31
2023-02-24T03:02:46.408Z,101289.06
2023-02-24T03:05:17.497Z,101285.66
2023-02-24T03:07:51.111Z,101278.78
2023-02-24T03:10:27.874Z,101272.69
2023-02-24T03:12:59.565Z,101258.19
2023-02-24T03:15:30.368Z,101267.88
2023-02-24T03:18:12.121Z,101263.78
2023-02-24T03:20:48.318Z,101261.22
2023-02-24T03:23:19.011Z,101246.50
2023-02-24T03:25:58.802Z,101252.09
2023-02-24T03:28:35.692Z,101251.28
2023-02-24T03:31:11.063Z,101238.53
2023-02-24T03:33:50.056Z,101242.84
2023-02-24T03:36:17.260Z,101227.38
2023-02-24T03:38:44.411Z,101228.84
2023-02-24T03:41:11.803Z,101230.47
2023-02-24T03:43:46.261Z,101220.91
2023-02-24T03:46:18.951Z,101236.78
2023-02-24T03:48:51.730Z,101238.72
2023-02-24T03:51:23.282Z,101226.06
2023-02-24T03:54:03.248Z,101228.88
2023-02-24T03:57:24.351Z,101231.91
2023-02-24T04:00:21.915Z,101221.00
2023-02-24T04:03:01.161Z,101219.44
2023-02-24T04:05:31.516Z,101215.41
2023-02-24T04:08:07.529Z,101219.81
2023-02-24T04:10:52.394Z,101213.13
2023-02-24T04:13:23.642Z,101200.66
2023-02-24T04:15:59.373Z,101202.41
2023-02-24T04:18:31.910Z,101192.22
2023-02-24T04:21:03.038Z,101200.81
2023-02-24T04:23:33.988Z,101195.53
2023-02-24T04:26:02.470Z,101188.69
2023-02-24T04:28:31.324Z,101186.91
2023-02-24T04:31:06.018Z,101169.75
2023-02-24T04:33:33.639Z,101166.06
2023-02-24T04:36:00.704Z,101160.19
2023-02-24T04:38:28.099Z,101147.94
2023-02-24T04:40:55.264Z,101145.38
2023-02-24T04:43:22.414Z,101142.75
2023-02-24T04:45:51.606Z,101138.69
2023-02-24T04:48:20.209Z,101136.31
2023-02-24T04:50:52.905Z,101143.00
2023-02-24T04:53:26.971Z,101141.25
2023-02-24T04:55:56.844Z,101135.09
2023-02-24T04:58:28.883Z,101127.16
2023-02-24T05:00:56.914Z,101133.25
2023-02-24T05:03:28.348Z,101125.59
2023-02-24T05:06:00.093Z,101113.59
2023-02-24T05:08:30.370Z,101123.31
2023-02-24T05:11:00.426Z,101111.22
2023-02-24T05:13:31.841Z,101113.88
2023-02-24T05:16:06.745Z,101106.13
2023-02-24T05:18:37.157Z,101102.19
2023-02-24T05:24:06.842Z,101070.81
2023-02-24T05:26:36.060Z,101077.97
2023-02-24T05:29:05.234Z,101075.69
2023-02-24T05:31:33.118Z,101074.72
2023-02-24T05:34:03.198Z,101075.50
2023-02-24T05:36:33.337Z,101060.03
2023-02-24T05:39:07.358Z,101064.50
2023-02-24T05:41:38.613Z,101055.19
2023-02-24T05:44:09.372Z,101048.41
2023-02-24T05:46:41.758Z,101053.50
2023-02-24T05:49:14.185Z,101044.28
2023-02-24T05:51:54.478Z,101034.84
2023-02-24T05:54:32.598Z,101026.41
2023-02-24T05:57:13.918Z,101018.22
2023-02-24T05:59:42.413Z,101010.13
2023-02-24T06:02:12.914Z,101012.06
2023-02-24T06:04:53.956Z,101000.88
2023-02-24T06:07:27.392Z,101004.50
2023-02-24T06:09:58.709Z,100997.69
2023-02-24T06:12:34.181Z,100992.00
2023-02-24T06:15:04.828Z,100973.06
2023-02-24T06:17:31.861Z,100987.81
2023-02-24T06:19:59.587Z,100986.09
2023-02-24T06:22:27.805Z,100985.53
2023-02-24T06:24:56.306Z,100988.81
2023-02-24T06:27:24.921Z,100983.88
2023-02-24T06:29:54.849Z,100977.97
2023-02-24T06:32:25.216Z,100975.75
2023-02-24T06:34:54.305Z,100967.94
2023-02-24T06:37:23.093Z,100979.38
2023-02-24T06:39:50.889Z,100977.94
2023-02-24T06:42:18.159Z,100953.97
2023-02-24T06:44:45.343Z,100954.88
2023-02-24T06:47:14.361Z,100953.44
2023-02-24T06:49:42.822Z,100939.50
2023-02-24T06:52:11.531Z,100943.34
2023-02-24T06:54:38.810Z,100937.59
2023-02-24T06:57:05.901Z,100940.13
2023-02-24T06:59:33.058Z,100935.91
2023-02-24T07:02:03.388Z,100935.09
2023-02-24T07:04:30.700Z,100941.25
2023-02-24T07:07:03.115Z,100927.41
2023-02-24T07:09:31.923Z,100919.81
2023-02-24T07:12:02.416Z,100914.78
2023-02-24T07:14:31.604Z,100907.59
2023-02-24T07:16:59.849Z,100919.19
2023-02-24T07:19:32.614Z,100913.19
2023-02-24T07:22:03.579Z,100909.13
2023-02-24T07:24:36.341Z,100908.38
2023-02-24T07:27:07.065Z,100910.41
2023-02-24T07:29:35.782Z,100895.13
2023-02-24T07:32:05.898Z,100908.31
2023-02-24T07:34:34.254Z,100901.75
2023-02-24T07:37:07.789Z,100901.03
2023-02-24T07:39:36.782Z,100891.78
2023-02-24T07:42:04.818Z,100883.16
2023-02-24T07:44:33.132Z,100891.22
2023-02-24T07:47:00.684Z,100879.41
2023-02-24T07:49:30.192Z,100875.72
2023-02-24T07:51:58.058Z,100876.97
2023-02-24T07:54:30.070Z,100875.84
2023-02-24T07:56:59.224Z,100877.91
2023-02-24T07:59:30.533Z,100876.16
2023-02-24T08:01:57.960Z,100871.22
2023-02-24T08:04:29.200Z,100870.59
2023-02-24T08:07:03.228Z,100874.84
2023-02-24T08:09:44.995Z,100871.63
2023-02-24T08:12:21.489Z,100852.56
2023-02-24T08:14:51.925Z,100855.66
2023-02-24T08:17:27.220Z,100858.34
2023-02-24T08:20:15.931Z,100849.88
2023-02-24T08:22:46.597Z,100844.69
2023-02-24T08:25:18.857Z,100835.66
2023-02-24T08:28:12.992Z,100831.09
2023-02-24T08:30:45.698Z,100840.81
2023-02-24T08:33:19.268Z,100822.31
2023-02-24T08:35:52.230Z,100823.47
2023-02-24T08:38:25.901Z,100812.53
2023-02-24T08:40:54.726Z,100800.66
2023-02-24T08:43:29.353Z,100809.50
2023-02-24T08:46:01.115Z,100807.38
2023-02-24T08:48:37.062Z,100809.03
2023-02-24T08:51:15.817Z,100798.94
2023-02-24T08:53:44.603Z,100801.56
2023-02-24T08:56:13.403Z,100803.31
2023-02-24T08:58:49.210Z,100796.00
2023-02-24T09:01:35.210Z,100790.03
2023-02-24T09:04:07.345Z,100783.53
2023-02-24T09:06:39.544Z,100776.25
2023-02-24T09:09:20.825Z,100763.03
2023-02-24T09:11:57.732Z,100767.47
2023-02-24T09:14:29.222Z,100768.78
2023-02-24T09:17:11.127Z,100754.25
2023-02-24T09:19:46.839Z,100756.63
2023-02-24T09:22:29.632Z,100745.16
2023-02-24T09:25:18.348Z,100747.09
2023-02-24T09:28:07.794Z,100736.59
2023-02-24T09:30:38.677Z,100730.00
2023-02-24T09:33:18.378Z,100721.22
2023-02-24T09:35:50.248Z,100721.47
2023-02-24T09:38:42.204Z,100718.00
2023-02-24T09:42:07.604Z,100708.66
2023-02-24T09:44:44.350Z,100715.63
2023-02-24T09:47:32.482Z,100705.50
2023-02-24T09:50:25.218Z,100701.06
2023-02-24T09:53:14.315Z,100694.84
2023-02-24T09:56:03.890Z,100696.59
2023-02-24T09:58:49.484Z,100701.81
2023-02-24T10:01:33.142Z,100695.00
2023-02-24T10:04:28.154Z,100673.75
2023-02-24T10:06:58.837Z,100688.06
2023-02-24T10:09:34.469Z,100685.56
2023-02-24T10:12:24.038Z,100679.41
2023-02-24T10:15:17.300Z,100673.63
2023-02-24T10:17:56.352Z,100662.53
2023-02-24T10:20:31.164Z,100667.56
2023-02-24T10:23:09.621Z,100667.63
2023-02-24T10:25:56.341Z,100660.25
2023-02-24T10:28:52.147Z,100650.13
2023-02-24T10:31:30.532Z,100644.25
2023-02-24T10:34:06.108Z,100639.44
2023-02-24T10:36:37.882Z,100641.28
2023-02-24T10:39:26.333Z,100632.94
2023-02-24T10:41:57.730Z,100640.66
2023-02-24T10:44:35.900Z,100626.88
2023-02-24T10:47:13.714Z,100623.72
2023-02-24T10:49:42.949Z,100627.09
2023-02-24T10:52:33.386Z,100613.53
2023-02-24T10:55:27.404Z,100609.84
2023-02-24T10:58:07.274Z,100608.31
2023-02-24T11:01:00.021Z,100592.75
2023-02-24T11:03:47.989Z,100605.78
2023-02-24T11:06:30.893Z,100588.16
2023-02-24T11:09:18.766Z,100581.91
2023-02-24T11:12:11.068Z,100588.25
2023-02-24T11:15:08.367Z,100575.50
2023-02-24T11:17:37.718Z,100578.75
2023-02-24T11:20:10.991Z,100581.06
2023-02-24T11:22:43.164Z,100591.34
2023-02-24T11:25:18.861Z,100574.41
2023-02-24T11:27:47.357Z,100573.88
2023-02-24T11:30:43.314Z,100567.34
2023-02-24T11:33:47.308Z,100566.50
2023-02-24T11:36:54.464Z,100566.91
2023-02-24T11:39:45.607Z,100563.47
2023-02-24T11:42:19.996Z,100556.84
2023-02-24T11:45:12.957Z,100551.94
2023-02-24T11:47:45.327Z,100556.38
2023-02-24T11:50:39.506Z,100541.84
2023-02-24T11:53:18.825Z,100534.97
2023-02-24T11:55:53.342Z,100525.66
2023-02-24T11:58:28.076Z,100528.69
2023-02-24T12:01:15.872Z,100530.44
2023-02-24T12:03:50.452Z,100514.84
2023-02-24T12:07:02.258Z,100534.84
2023-02-24T12:09:48.231Z,100520.56
2023-02-24T12:12:39.580Z,100519.91
2023-02-24T12:15:34.061Z,100524.28
2023-02-24T12:18:14.914Z,100519.09
2023-02-24T12:20:52.747Z,100508.09
2023-02-24T12:23:28.302Z,100508.38
2023-02-24T12:26:24.089Z,100503.41
2023-02-24T12:29:18.709Z,100507.81
2023-02-24T12:32:01.667Z,100508.28
2023-02-24T12:34:59.624Z,100479.63
2023-02-24T12:37:48.441Z,100487.53
2023-02-24T12:40:35.585Z,100492.00
2023-02-24T12:43:15.743Z,100481.19
2023-02-24T12:45:54.599Z,100481.09
2023-02-24T12:48:48.946Z,100469.97
2023-02-24T12:51:33.646Z,100471.13
2023-02-24T12:54:13.344Z,100489.06
2023-02-24T12:56:52.894Z,100477.19
2023-02-24T12:59:25.279Z,100480.50
2023-02-24T13:02:05.709Z,100476.19
2023-02-24T13:04:54.274Z,100484.75
2023-02-24T13:07:39.985Z,100482.09
2023-02-24T13:10:29.729Z,100468.28
2023-02-24T13:13:16.137Z,100460.69
2023-02-24T13:15:54.822Z,100455.84
2023-02-24T13:18:28.727Z,100453.66
2023-02-24T13:21:09.854Z,100459.88
2023-02-24T13:23:40.983Z,100449.22
2023-02-24T13:26:08.874Z,100446.63
2023-02-24T13:28:39.090Z,100423.47
2023-02-24T13:31:11.936Z,100443.22
2023-02-24T13:33:42.064Z,100446.22
2023-02-24T13:36:16.757Z,100444.50
2023-02-24T13:38:47.738Z,100440.66
2023-02-24T13:41:27.618Z,100469.19
2023-02-24T13:44:00.149Z,100460.00
2023-02-24T13:46:56.379Z,100475.78
2023-02-24T13:49:45.028Z,100475.41
2023-02-24T13:52:39.733Z,100460.06
2023-02-24T13:55:24.209Z,100439.91
2023-02-24T13:58:01.246Z,100459.00
2023-02-24T14:00:40.189Z,100457.31
2023-02-24T14:03:18.475Z,100434.81
2023-02-24T14:05:45.807Z,100443.75
2023-02-24T14:08:22.697Z,100432.22
2023-02-24T14:10:56.502Z,100436.94
2023-02-24T14:13:27.736Z,100434.66
2023-02-24T14:15:57.295Z,100440.28
2023-02-24T14:18:28.963Z,100450.13
2023-02-24T14:20:57.810Z,100448.78
2023-02-24T14:23:31.640Z,100436.28
2023-02-24T14:26:00.654Z,100443.03
2023-02-24T14:28:36.907Z,100428.28
2023-02-24T14:31:13.803Z,100437.66
2023-02-24T14:33:43.734Z,100433.41
2023-02-24T14:36:18.248Z,100429.25
2023-02-24T14:38:45.361Z,100424.09
2023-02-24T14:41:24.542Z,100430.16
2023-02-24T14:43:52.396Z,100421.66
2023-02-24T14:46:20.714Z,100442.63
2023-02-24T14:48:56.456Z,100430.53
2023-02-24T14:51:34.799Z,100421.63
2023-02-24T14:54:07.727Z,100419.66
2023-02-24T14:56:36.780Z,100416.59
2023-02-24T14:59:17.042Z,100425.22
2023-02-24T15:01:49.898Z,100430.63
2023-02-24T15:04:43.633Z,100428.00
2023-02-24T15:07:37.455Z,100429.38
2023-02-24T15:10:06.838Z,100411.59
2023-02-24T15:12:43.130Z,100417.81
2023-02-24T15:15:23.398Z,100441.22
2023-02-24T15:17:56.600Z,100439.09
2023-02-24T15:20:38.441Z,100438.25
2023-02-24T15:23:06.049Z,100428.78
2023-02-24T15:25:46.716Z,100421.06
2023-02-24T15:28:32.893Z,100415.84
2023-02-24T15:31:15.706Z,100422.31
2023-02-24T15:33:46.083Z,100425.91
2023-02-24T15:36:20.018Z,100419.56
2023-02-24T15:38:53.128Z,100433.09
2023-02-24T15:41:20.373Z,100430.78
2023-02-24T15:43:50.553Z,100437.66
2023-02-24T15:46:23.728Z,100439.81
2023-02-24T15:48:53.407Z,100426.34
2023-02-24T15:51:53.441Z,100415.13
2023-02-24T15:54:36.074Z,100417.59
2023-02-24T15:57:05.384Z,100423.44
2023-02-24T15:59:32.961Z,100419.09
2023-02-24T16:02:00.125Z,100408.63
2023-02-24T16:04:27.992Z,100415.84
2023-02-24T16:06:57.741Z,100415.22
2023-02-24T16:09:39.072Z,100411.84
2023-02-24T16:12:12.189Z,100418.72
2023-02-24T16:14:39.913Z,100408.53
2023-02-24T16:17:17.274Z,100397.56
2023-02-24T16:19:44.364Z,100392.94
2023-02-24T16:22:11.484Z,100440.16
2023-02-24T16:24:38.571Z,100446.78
2023-02-24T16:27:06.241Z,100442.50
2023-02-24T16:29:33.265Z,100448.50
2023-02-24T16:32:00.591Z,100436.16
2023-02-24T16:34:27.994Z,100454.03
2023-02-24T16:36:55.073Z,100452.28
2023-02-24T16:39:22.484Z,100445.19
2023-02-24T16:41:49.515Z,100433.03
2023-02-24T16:44:16.627Z,100431.19
2023-02-24T16:46:45.212Z,100439.13
2023-02-24T16:49:18.915Z,100434.06
2023-02-24T16:51:45.963Z,100442.66
2023-02-24T16:54:12.962Z,100444.72
2023-02-24T16:56:39.986Z,100437.22
2023-02-24T16:59:07.029Z,100449.22
2023-02-24T17:01:34.403Z,100433.69
2023-02-24T17:04:01.969Z,100458.88
2023-02-24T17:06:29.590Z,100468.09
2023-02-24T17:08:59.767Z,100477.38
2023-02-24T17:11:28.444Z,100468.75
2023-02-24T17:13:55.485Z,100479.59
2023-02-24T17:16:23.937Z,100461.44
2023-02-24T17:18:51.336Z,100470.66
2023-02-24T17:21:18.695Z,100466.34
2023-02-24T17:23:45.807Z,100473.00
2023-02-24T17:26:14.870Z,100490.34
2023-02-24T17:28:42.121Z,100486.22
2023-02-24T17:31:09.328Z,100487.66
2023-02-24T17:33:36.471Z,100484.50
2023-02-24T17:36:03.811Z,100484.53
2023-02-24T17:38:30.837Z,100487.19
2023-02-24T17:40:57.894Z,100482.69
2023-02-24T17:43:24.987Z,100493.06
2023-02-24T17:45:53.411Z,100496.84
2023-02-24T17:48:21.527Z,100503.00
2023-02-24T17:50:48.954Z,100513.44
2023-02-24T17:53:16.001Z,100510.81
2023-02-24T17:55:59.718Z,100527.38
2023-02-24T17:58:28.527Z,100558.97
2023-02-24T18:00:55.928Z,100531.03
2023-02-24T18:03:24.010Z,100532.03
2023-02-24T18:06:05.290Z,100531.06
2023-02-24T18:08:33.615Z,100532.56
2023-02-24T18:11:00.955Z,100533.31
2023-02-24T18:13:29.688Z,100527.97
2023-02-24T18:15:57.877Z,100526.97
2023-02-24T18:18:26.811Z,100529.38
2023-02-24T18:20:54.996Z,100539.47
2023-02-24T18:23:24.191Z,100535.31
2023-02-24T18:25:51.210Z,100538.00
2023-02-24T18:28:18.314Z,100537.19
2023-02-24T18:30:45.418Z,100535.25
2023-02-24T18:33:12.588Z,100545.00
2023-02-24T18:35:40.027Z,100533.31
2023-02-24T18:38:07.082Z,100541.25
2023-02-24T18:40:34.279Z,100538.72
2023-02-24T18:43:01.372Z,100544.56
2023-02-24T18:45:28.390Z,100518.81
2023-02-24T18:47:55.449Z,100543.81
2023-02-24T18:50:25.185Z,100541.09
2023-02-24T18:52:52.310Z,100546.50
2023-02-24T18:55:19.767Z,100538.81
2023-02-24T18:57:47.352Z,100537.88
2023-02-24T19:00:15.539Z,100552.44
2023-02-24T19:02:42.688Z,100546.50
2023-02-24T19:05:10.224Z,100552.53
2023-02-24T19:07:37.335Z,100547.41
2023-02-24T19:10:05.202Z,100543.81
2023-02-24T19:12:32.567Z,100553.53
2023-02-24T19:14:59.624Z,100541.28
2023-02-24T19:17:27.608Z,100540.53
2023-02-24T19:19:55.057Z,100538.06
2023-02-24T19:22:22.219Z,100543.28
2023-02-24T19:24:49.359Z,100552.81
2023-02-24T19:27:16.467Z,100547.69
2023-02-24T19:29:43.475Z,100539.16
2023-02-24T19:32:10.705Z,100545.22
2023-02-24T19:34:37.861Z,100547.16
2023-02-24T19:37:04.911Z,100548.16
2023-02-24T19:39:32.021Z,100550.16
2023-02-24T19:41:59.127Z,100549.44
2023-02-24T19:44:26.826Z,100553.88
2023-02-24T19:46:53.921Z,100553.94
2023-02-24T19:49:20.965Z,100559.88
2023-02-24T19:51:48.498Z,100572.22
2023-02-24T19:54:16.143Z,100563.16
2023-02-24T19:56:44.119Z,100558.06
2023-02-24T19:59:11.502Z,100570.31
2023-02-24T20:01:38.602Z,100568.50
2023-02-24T20:04:05.941Z,100580.72
2023-02-24T20:06:39.352Z,100580.91
2023-02-24T20:09:15.550Z,100581.84
2023-02-24T20:11:44.696Z,100584.41
2023-02-24T20:14:13.298Z,100590.75
2023-02-24T20:16:42.048Z,100594.34
2023-02-24T20:19:11.408Z,100583.00
2023-02-24T20:21:39.344Z,100585.75
2023-02-24T20:24:13.733Z,100582.13
2023-02-24T20:26:43.024Z,100592.56
2023-02-24T20:29:11.433Z,100600.44
2023-02-24T20:31:39.759Z,100597.81
2023-02-24T20:34:08.895Z,100603.72
2023-02-24T20:36:36.529Z,100614.88
2023-02-24T20:39:06.511Z,100619.69
2023-02-24T20:41:34.092Z,100621.59
2023-02-24T20:44:01.200Z,100626.66
2023-02-24T20:46:31.621Z,100630.03
2023-02-24T20:49:05.282Z,100629.19
2023-02-24T20:51:34.494Z,100619.78
2023-02-24T20:54:01.724Z,100623.09
2023-02-24T20:56:32.873Z,100627.13
2023-02-24T20:59:04.791Z,100616.03
2023-02-24T21:01:32.696Z,100627.19
2023-02-24T21:04:00.439Z,100635.53
2023-02-24T21:06:28.757Z,100636.47
2023-02-24T21:08:57.640Z,100630.22
2023-02-24T21:11:25.342Z,100627.00
2023-02-24T21:13:52.472Z,100614.78
2023-02-24T21:16:21.310Z,100618.34
2023-02-24T21:18:51.539Z,100633.41
2023-02-24T21:21:20.640Z,100632.34
2023-02-24T21:23:59.574Z,100640.06
2023-02-24T21:26:29.092Z,100631.38
2023-02-24T21:28:59.181Z,100634.63
2023-02-24T21:31:27.874Z,100639.00
2023-02-24T21:33:56.731Z,100628.50
2023-02-24T21:36:26.237Z,100624.91
2023-02-24T21:38:54.952Z,100629.88
2023-02-24T21:41:23.679Z,100631.88
2023-02-24T21:43:55.392Z,100635.13
2023-02-24T21:46:27.986Z,100633.19
2023-02-24T21:48:57.854Z,100629.88
2023-02-24T21:51:27.769Z,100614.13
2023-02-24T21:53:56.657Z,100624.59
2023-02-24T21:56:29.596Z,100626.81
2023-02-24T21:59:02.675Z,100623.97
2023-02-24T22:01:34.683Z,100620.19
2023-02-24T22:04:04.692Z,100630.19
2023-02-24T22:06:34.187Z,100637.00
2023-02-24T22:09:03.844Z,100636.00
2023-02-24T22:11:32.881Z,100634.78
2023-02-24T22:13:59.987Z,100638.16
2023-02-24T22:16:28.638Z,100642.19
2023-02-24T22:18:56.731Z,100638.09
2023-02-24T22:21:26.697Z,100652.09
2023-02-24T22:23:57.719Z,100642.19
2023-02-24T22:26:27.862Z,100642.19
2023-02-24T22:28:55.426Z,100632.88
2023-02-24T22:31:28.495Z,100636.31
2023-02-24T22:33:56.713Z,100636.25
2023-02-24T22:36:27.862Z,100637.06
2023-02-24T22:38:57.725Z,100642.13
2023-02-24T22:41:33.485Z,100640.22
2023-02-24T22:44:04.276Z,100645.97
2023-02-24T22:46:34.604Z,100643.84
2023-02-24T22:49:02.292Z,100651.63
2023-02-24T22:51:29.652Z,100654.84
2023-02-24T22:53:58.035Z,100657.19
2023-02-24T22:56:28.611Z,100655.59
2023-02-24T22:58:56.785Z,100661.56
2023-02-24T23:01:32.763Z,100656.28
2023-02-24T23:04:01.703Z,100652.00
2023-02-24T23:06:29.394Z,100644.28
2023-02-24T23:08:59.215Z,100647.91
2023-02-24T23:11:39.262Z,100646.22
2023-02-24T23:14:10.062Z,100657.19
2023-02-24T23:16:38.901Z,100658.94
2023-02-24T23:19:13.009Z,100667.44
2023-02-24T23:21:45.457Z,100662.72
2023-02-24T23:24:14.837Z,100661.88
2023-02-24T23:26:47.705Z,100672.81
2023-02-24T23:29:17.254Z,100680.69
2023-02-24T23:31:44.669Z,100683.38
2023-02-24T23:34:12.246Z,100683.38
2023-02-24T23:36:43.502Z,100684.09
2023-02-24T23:39:12.865Z,100685.94
2023-02-24T23:41:43.983Z,100674.78
2023-02-24T23:44:12.292Z,100683.56
2023-02-24T23:46:39.452Z,100689.53
2023-02-24T23:49:06.487Z,100686.56
2023-02-24T23:51:50.097Z,100689.16
2023-02-24T23:54:18.138Z,100691.06
2023-02-24T23:56:46.393Z,100687.97
2023-02-24T23:59:13.821Z,100670.06
